createdAt,value
2018-04-29T00:02:22.474Z,15.70
2018-04-29T00:04:50.007Z,15.60
2018-04-29T00:07:18.308Z,15.50
2018-04-29T00:09:45.851Z,15.50
2018-04-29T00:12:13.392Z,15.50
2018-04-29T00:14:40.940Z,15.50
2018-04-29T00:17:08.485Z,15.50
2018-04-29T00:19:36.061Z,15.50
2018-04-29T00:22:03.586Z,15.60
2018-04-29T00:24:31.158Z,15.60
2018-04-29T00:26:58.677Z,15.60
2018-04-29T00:29:26.218Z,15.60
2018-04-29T00:31:53.863Z,15.60
2018-04-29T00:34:21.442Z,15.70
2018-04-29T00:36:49.018Z,15.70
2018-04-29T00:39:16.546Z,15.60
2018-04-29T00:41:44.863Z,15.60
2018-04-29T00:44:12.380Z,15.50
2018-04-29T00:46:39.928Z,15.50
2018-04-29T00:49:07.459Z,15.50
2018-04-29T00:51:46.991Z,15.40
2018-04-29T00:54:14.507Z,15.30
2018-04-29T00:56:42.822Z,15.20
2018-04-29T00:59:10.410Z,15.10
2018-04-29T01:01:37.912Z,15.10
2018-04-29T01:04:05.448Z,15.00
2018-04-29T01:06:33.084Z,14.90
2018-04-29T01:09:00.611Z,14.80
2018-04-29T01:11:28.183Z,14.80
2018-04-29T01:13:55.704Z,14.90
2018-04-29T01:16:23.246Z,14.90
2018-04-29T01:18:50.766Z,15.00
2018-04-29T01:21:19.074Z,15.00
2018-04-29T01:23:46.598Z,15.00
2018-04-29T01:26:14.139Z,15.00
2018-04-29T01:28:41.650Z,15.00
2018-04-29T01:31:09.236Z,15.00
2018-04-29T01:33:36.783Z,15.00
2018-04-29T01:36:04.322Z,15.00
2018-04-29T01:38:31.838Z,15.00
2018-04-29T01:41:00.256Z,15.10
2018-04-29T01:43:27.796Z,15.10
2018-04-29T01:45:55.342Z,15.10
2018-04-29T01:48:23.003Z,15.10
2018-04-29T01:50:50.555Z,15.20
2018-04-29T01:53:18.108Z,15.20
2018-04-29T01:55:45.632Z,15.20
2018-04-29T01:58:13.171Z,15.30
2018-04-29T02:00:40.701Z,15.30
2018-04-29T02:03:08.250Z,15.30
2018-04-29T02:05:35.800Z,15.30
2018-04-29T02:08:03.362Z,15.30
2018-04-29T02:10:30.920Z,15.30
2018-04-29T02:12:58.501Z,15.30
2018-04-29T02:15:26.788Z,15.10
2018-04-29T02:17:54.331Z,15.10
2018-04-29T02:20:21.847Z,15.10
2018-04-29T02:22:50.175Z,14.90
2018-04-29T02:25:18.542Z,14.80
2018-04-29T02:27:46.086Z,14.80
2018-04-29T02:30:13.923Z,14.70
2018-04-29T02:32:41.467Z,14.60
2018-04-29T02:35:09.115Z,14.50
2018-04-29T02:37:36.712Z,14.50
2018-04-29T02:40:04.245Z,14.50
2018-04-29T02:42:32.562Z,14.30
2018-04-29T02:45:00.099Z,14.30
2018-04-29T02:47:27.655Z,14.30
2018-04-29T02:49:55.178Z,14.20
2018-04-29T02:52:22.833Z,14.10
2018-04-29T02:54:50.355Z,14.10
2018-04-29T02:57:17.911Z,14.00
2018-04-29T02:59:45.437Z,13.90
2018-04-29T03:02:13.025Z,13.90
2018-04-29T03:04:40.563Z,13.80
2018-04-29T03:07:08.092Z,13.90
2018-04-29T03:09:35.655Z,14.00
2018-04-29T03:12:03.191Z,14.00
2018-04-29T03:14:30.735Z,14.20
2018-04-29T03:16:58.268Z,14.20
2018-04-29T03:19:25.862Z,14.20
2018-04-29T03:21:54.175Z,14.00
2018-04-29T03:24:21.724Z,14.00
2018-04-29T03:26:49.249Z,13.90
2018-04-29T03:29:16.807Z,13.80
2018-04-29T03:31:44.361Z,13.70
2018-04-29T03:34:11.910Z,13.60
2018-04-29T03:36:39.435Z,13.50
2018-04-29T03:39:06.987Z,13.40
2018-04-29T03:41:34.510Z,13.30
2018-04-29T03:44:02.062Z,13.20
2018-04-29T03:46:29.591Z,13.20
2018-04-29T03:48:57.146Z,13.20
2018-04-29T03:51:24.819Z,13.10
2018-04-29T03:53:52.374Z,13.10
2018-04-29T03:56:21.314Z,13.10
2018-04-29T03:59:00.841Z,13.10
2018-04-29T04:01:40.299Z,13.20
2018-04-29T04:04:07.851Z,13.20
2018-04-29T04:06:35.477Z,13.20
2018-04-29T04:09:03.087Z,13.20
2018-04-29T04:11:31.382Z,13.30
2018-04-29T04:13:58.946Z,13.30
2018-04-29T04:16:26.475Z,13.40
2018-04-29T04:18:54.039Z,13.40
2018-04-29T04:21:21.592Z,13.50
2018-04-29T04:23:49.205Z,13.50
2018-04-29T04:26:17.448Z,13.70
2018-04-29T04:28:45.023Z,13.70
2018-04-29T04:31:12.547Z,13.70
2018-04-29T04:33:44.856Z,13.70
2018-04-29T04:36:13.882Z,13.70
2018-04-29T04:38:41.430Z,13.70
2018-04-29T04:41:08.952Z,13.70
2018-04-29T04:43:36.669Z,13.70
2018-04-29T04:46:04.954Z,13.70
2018-04-29T04:48:32.503Z,13.70
2018-04-29T04:51:00.092Z,13.80
2018-04-29T04:53:27.626Z,13.80
2018-04-29T04:55:55.166Z,13.80
2018-04-29T04:58:22.687Z,13.90
2018-04-29T05:00:50.234Z,13.90
2018-04-29T05:03:17.761Z,13.90
2018-04-29T05:05:46.094Z,14.00
2018-04-29T05:08:13.618Z,14.00
2018-04-29T05:10:41.176Z,14.10
2018-04-29T05:13:08.708Z,14.20
2018-04-29T05:15:36.279Z,14.30
2018-04-29T05:18:04.567Z,14.60
2018-04-29T05:20:32.148Z,14.60
2018-04-29T05:22:59.679Z,14.90
2018-04-29T05:25:27.273Z,15.10
2018-04-29T05:27:54.796Z,15.20
2018-04-29T05:30:23.247Z,15.60
2018-04-29T05:32:50.807Z,15.50
2018-04-29T05:35:18.370Z,15.70
2018-04-29T05:37:45.903Z,15.80
2018-04-29T05:40:13.835Z,15.90
2018-04-29T05:42:41.350Z,16.00
2018-04-29T05:45:08.928Z,16.10
2018-04-29T05:47:36.511Z,16.10
2018-04-29T05:50:04.057Z,16.20
2018-04-29T05:52:32.344Z,16.40
2018-04-29T05:54:59.893Z,16.40
2018-04-29T05:57:27.538Z,16.50
2018-04-29T05:59:55.077Z,16.70
2018-04-29T06:02:23.411Z,16.80
2018-04-29T06:04:51.735Z,17.00
2018-04-29T06:07:19.280Z,17.00
2018-04-29T06:09:46.828Z,17.10
2018-04-29T06:12:14.472Z,17.10
2018-04-29T06:14:41.996Z,17.20
2018-04-29T06:17:09.551Z,17.30
2018-04-29T06:19:37.108Z,17.40
2018-04-29T06:22:04.750Z,17.50
2018-04-29T06:24:32.266Z,17.60
2018-04-29T06:26:59.806Z,17.80
2018-04-29T06:29:27.653Z,17.90
2018-04-29T06:31:55.289Z,18.10
2018-04-29T06:34:23.716Z,18.30
2018-04-29T06:36:51.287Z,18.40
2018-04-29T06:39:18.816Z,18.50
2018-04-29T06:41:46.404Z,18.40
2018-04-29T06:44:13.945Z,18.40
2018-04-29T06:46:41.561Z,18.60
2018-04-29T06:49:09.880Z,18.80
2018-04-29T06:51:37.431Z,18.70
2018-04-29T06:54:04.956Z,18.80
2018-04-29T06:56:32.510Z,19.00
2018-04-29T06:59:00.037Z,19.20
2018-04-29T07:01:27.687Z,19.40
2018-04-29T07:03:55.219Z,19.60
2018-04-29T07:06:24.548Z,19.60
2018-04-29T07:08:52.066Z,19.60
2018-04-29T07:11:19.607Z,19.70
2018-04-29T07:13:47.142Z,19.90
2018-04-29T07:16:14.691Z,20.00
2018-04-29T07:18:42.236Z,20.10
2018-04-29T07:21:09.779Z,20.20
2018-04-29T07:23:37.308Z,20.10
2018-04-29T07:26:09.981Z,20.20
2018-04-29T07:28:37.528Z,20.30
2018-04-29T07:31:05.820Z,20.40
2018-04-29T07:33:33.388Z,20.40
2018-04-29T07:36:02.468Z,20.50
2018-04-29T07:38:30.103Z,20.50
2018-04-29T07:40:57.701Z,20.60
2018-04-29T07:43:25.543Z,20.70
2018-04-29T07:45:53.242Z,21.00
2018-04-29T07:48:20.791Z,21.10
2018-04-29T07:50:48.311Z,21.20
2018-04-29T07:53:15.854Z,21.40
2018-04-29T07:55:43.362Z,21.60
2018-04-29T07:58:11.683Z,21.60
2018-04-29T08:00:39.237Z,21.60
2018-04-29T08:03:06.781Z,21.90
2018-04-29T08:05:34.310Z,22.20
2018-04-29T08:08:01.958Z,22.40
2018-04-29T08:10:29.606Z,22.50
2018-04-29T08:12:57.195Z,22.30
2018-04-29T08:15:26.537Z,22.10
2018-04-29T08:17:54.796Z,22.20
2018-04-29T08:20:22.314Z,22.20
2018-04-29T08:22:49.875Z,22.20
2018-04-29T08:25:17.396Z,22.20
2018-04-29T08:27:44.992Z,22.10
2018-04-29T08:30:12.621Z,22.00
2018-04-29T08:32:40.571Z,22.00
2018-04-29T08:35:08.107Z,21.80
2018-04-29T08:37:35.899Z,21.60
2018-04-29T08:40:03.432Z,21.30
2018-04-29T08:42:32.531Z,20.90
2018-04-29T08:45:01.572Z,20.60
2018-04-29T08:47:29.128Z,20.60
2018-04-29T08:49:56.676Z,20.50
2018-04-29T08:52:24.237Z,20.50
2018-04-29T08:54:51.870Z,20.40
2018-04-29T08:57:19.419Z,20.40
2018-04-29T08:59:46.927Z,20.40
2018-04-29T09:02:14.589Z,20.50
2018-04-29T09:04:42.107Z,20.70
2018-04-29T09:07:09.651Z,20.90
2018-04-29T09:09:37.174Z,21.00
2018-04-29T09:12:05.491Z,21.00
2018-04-29T09:14:33.011Z,21.00
2018-04-29T09:17:00.531Z,21.10
2018-04-29T09:19:28.835Z,21.10
2018-04-29T09:21:56.363Z,21.00
2018-04-29T09:24:23.933Z,21.20
2018-04-29T09:26:51.456Z,21.30
2018-04-29T09:29:19.044Z,21.30
2018-04-29T09:31:46.571Z,21.30
2018-04-29T09:34:14.118Z,21.40
2018-04-29T09:36:41.640Z,21.30
2018-04-29T09:39:09.177Z,21.20
2018-04-29T09:41:36.706Z,21.10
2018-04-29T09:44:04.257Z,21.00
2018-04-29T09:46:31.784Z,21.00
2018-04-29T09:48:59.333Z,20.90
2018-04-29T09:51:27.825Z,21.00
2018-04-29T09:53:55.580Z,21.10
2018-04-29T09:56:23.107Z,21.10
2018-04-29T09:58:50.689Z,21.10
2018-04-29T10:01:18.232Z,21.20
2018-04-29T10:03:47.571Z,21.40
2018-04-29T10:06:15.091Z,21.50
2018-04-29T10:08:43.395Z,21.60
2018-04-29T10:11:10.932Z,21.60
2018-04-29T10:13:38.478Z,21.60
2018-04-29T10:16:05.994Z,21.70
2018-04-29T10:18:34.307Z,21.70
2018-04-29T10:21:01.900Z,21.80
2018-04-29T10:23:30.224Z,21.80
2018-04-29T10:25:57.804Z,21.80
2018-04-29T10:28:26.217Z,21.90
2018-04-29T10:30:53.735Z,21.90
2018-04-29T10:33:21.335Z,21.80
2018-04-29T10:35:48.851Z,21.80
2018-04-29T10:38:16.395Z,21.80
2018-04-29T10:40:43.929Z,21.90
2018-04-29T10:43:11.460Z,22.00
2018-04-29T10:45:39.002Z,22.00
2018-04-29T10:48:06.539Z,22.00
2018-04-29T10:50:34.074Z,22.10
2018-04-29T10:53:03.136Z,22.20
2018-04-29T10:55:31.151Z,22.10
2018-04-29T10:57:58.676Z,22.20
2018-04-29T11:00:26.242Z,22.20
2018-04-29T11:02:54.156Z,22.10
2018-04-29T11:05:21.901Z,22.20
2018-04-29T11:07:49.892Z,22.30
2018-04-29T11:10:17.434Z,22.40
2018-04-29T11:12:44.955Z,22.50
2018-04-29T11:15:13.321Z,22.50
2018-04-29T11:17:40.844Z,22.50
2018-04-29T11:20:09.161Z,22.70
2018-04-29T11:22:36.674Z,22.70
2018-04-29T11:25:04.494Z,22.90
2018-04-29T11:27:33.276Z,23.10
2018-04-29T11:30:01.620Z,23.20
2018-04-29T11:32:30.711Z,23.30
2018-04-29T11:34:59.132Z,23.30
2018-04-29T11:37:26.701Z,23.30
2018-04-29T11:39:55.767Z,23.50
2018-04-29T11:42:23.343Z,23.50
2018-04-29T11:44:51.670Z,23.60
2018-04-29T11:47:19.186Z,23.60
2018-04-29T11:49:46.757Z,23.70
2018-04-29T11:52:14.368Z,23.60
2018-04-29T11:54:42.159Z,23.60
2018-04-29T11:57:09.718Z,23.60
2018-04-29T11:59:37.281Z,23.60
2018-04-29T12:02:05.566Z,23.70
2018-04-29T12:04:33.424Z,23.70
2018-04-29T12:07:01.143Z,23.70
2018-04-29T12:09:29.535Z,23.80
2018-04-29T12:11:57.082Z,23.80
2018-04-29T12:14:24.654Z,23.80
2018-04-29T12:16:52.231Z,23.80
2018-04-29T12:19:19.883Z,23.90
2018-04-29T12:21:47.491Z,23.90
2018-04-29T12:24:15.011Z,24.10
2018-04-29T12:26:42.581Z,24.20
2018-04-29T12:29:10.112Z,24.20
2018-04-29T12:31:37.752Z,24.20
2018-04-29T12:34:05.276Z,24.10
2018-04-29T12:36:32.865Z,24.20
2018-04-29T12:39:00.403Z,24.10
2018-04-29T12:41:28.073Z,24.10
2018-04-29T12:43:55.625Z,24.00
2018-04-29T12:46:23.183Z,23.90
2018-04-29T12:48:50.890Z,24.10
2018-04-29T12:51:18.428Z,24.10
2018-04-29T12:53:46.087Z,24.20
2018-04-29T12:56:13.715Z,24.30
2018-04-29T12:58:41.249Z,24.40
2018-04-29T13:01:08.858Z,24.40
2018-04-29T13:03:37.249Z,24.50
2018-04-29T13:06:05.342Z,24.40
2018-04-29T13:08:33.507Z,24.40
2018-04-29T13:11:01.103Z,24.40
2018-04-29T13:13:29.460Z,24.50
2018-04-29T13:15:58.195Z,24.60
2018-04-29T13:18:25.729Z,24.50
2018-04-29T13:20:53.283Z,24.60
2018-04-29T13:23:20.819Z,24.70
2018-04-29T13:25:48.512Z,24.70
2018-04-29T13:28:16.112Z,24.80
2018-04-29T13:30:43.680Z,24.80
2018-04-29T13:33:11.407Z,24.90
2018-04-29T13:35:39.027Z,24.90
2018-04-29T13:38:06.527Z,25.00
2018-04-29T13:40:34.127Z,25.00
2018-04-29T13:43:01.946Z,25.20
2018-04-29T13:45:29.777Z,25.20
2018-04-29T13:47:57.407Z,25.40
2018-04-29T13:50:27.348Z,25.40
2018-04-29T13:52:55.236Z,25.50
2018-04-29T13:55:22.780Z,25.60
2018-04-29T13:57:50.347Z,25.40
2018-04-29T14:00:17.883Z,25.50
2018-04-29T14:02:45.472Z,25.50
2018-04-29T14:05:13.001Z,25.60
2018-04-29T14:07:41.366Z,25.70
2018-04-29T14:10:09.887Z,25.70
2018-04-29T14:12:37.686Z,25.70
2018-04-29T14:15:05.773Z,25.90
2018-04-29T14:17:33.622Z,25.90
2018-04-29T14:20:01.203Z,25.80
2018-04-29T14:22:28.791Z,25.80
2018-04-29T14:24:56.332Z,25.90
2018-04-29T14:27:24.659Z,25.80
2018-04-29T14:29:52.959Z,25.80
2018-04-29T14:32:20.685Z,25.70
2018-04-29T14:34:48.311Z,25.60
2018-04-29T14:37:15.943Z,25.40
2018-04-29T14:39:43.509Z,25.40
2018-04-29T14:42:11.106Z,25.50
2018-04-29T14:44:38.712Z,25.70
2018-04-29T14:47:07.062Z,26.20
2018-04-29T14:49:35.000Z,26.20
2018-04-29T14:52:02.566Z,26.20
2018-04-29T14:54:30.439Z,26.10
2018-04-29T14:56:57.983Z,26.30
2018-04-29T14:59:26.292Z,26.60
2018-04-29T15:01:54.187Z,26.60
2018-04-29T15:04:21.755Z,26.70
2018-04-29T15:06:49.493Z,26.80
2018-04-29T15:09:17.794Z,27.10
2018-04-29T15:11:45.391Z,27.10
2018-04-29T15:14:13.088Z,27.40
2018-04-29T15:16:40.978Z,27.40
2018-04-29T15:19:08.547Z,27.60
2018-04-29T15:21:37.211Z,27.60
2018-04-29T15:24:05.979Z,27.70
2018-04-29T15:26:35.232Z,27.80
2018-04-29T15:29:02.809Z,27.80
2018-04-29T15:31:30.658Z,28.10
2018-04-29T15:33:58.297Z,28.50
2018-04-29T15:36:25.834Z,28.70
2018-04-29T15:38:53.480Z,28.80
2018-04-29T15:41:21.016Z,29.10
2018-04-29T15:43:48.595Z,29.20
2018-04-29T15:46:16.160Z,29.50
2018-04-29T15:48:43.703Z,29.90
2018-04-29T15:51:12.213Z,30.40
2018-04-29T15:53:39.786Z,30.40
2018-04-29T15:56:08.129Z,31.00
2018-04-29T15:58:35.722Z,30.90
2018-04-29T16:01:03.243Z,31.70
2018-04-29T16:03:30.938Z,32.40
2018-04-29T16:05:59.119Z,33.10
2018-04-29T16:08:26.749Z,34.30
2018-04-29T16:10:54.776Z,35.10
2018-04-29T16:13:22.774Z,36.00
2018-04-29T16:15:50.617Z,36.60
2018-04-29T16:18:18.752Z,36.90
2018-04-29T16:20:46.357Z,37.40
2018-04-29T16:23:14.767Z,37.50
2018-04-29T16:25:42.411Z,37.50
2018-04-29T16:28:10.016Z,37.50
2018-04-29T16:30:37.879Z,37.90
2018-04-29T16:33:05.511Z,38.60
2018-04-29T16:35:33.877Z,38.90
2018-04-29T16:38:01.934Z,38.90
2018-04-29T16:40:29.452Z,38.70
2018-04-29T16:42:57.179Z,38.30
2018-04-29T16:45:25.026Z,37.80
2018-04-29T16:47:52.588Z,37.50
2018-04-29T16:50:20.655Z,37.80
2018-04-29T16:52:49.009Z,38.10
2018-04-29T16:55:16.554Z,38.10
2018-04-29T16:57:44.081Z,38.20
2018-04-29T17:00:11.622Z,38.00
2018-04-29T17:02:39.140Z,38.20
2018-04-29T17:05:07.492Z,38.30
2018-04-29T17:07:35.848Z,38.10
2018-04-29T17:10:04.227Z,37.70
2018-04-29T17:12:32.510Z,36.60
2018-04-29T17:15:00.082Z,36.60
2018-04-29T17:17:27.662Z,36.20
2018-04-29T17:19:56.010Z,35.10
2018-04-29T17:22:24.060Z,35.10
2018-04-29T17:24:51.745Z,34.70
2018-04-29T17:27:19.325Z,33.80
2018-04-29T17:29:46.866Z,32.90
2018-04-29T17:32:14.406Z,32.60
2018-04-29T17:34:42.381Z,31.90
2018-04-29T17:37:10.995Z,31.00
2018-04-29T17:39:38.606Z,30.90
2018-04-29T17:42:06.137Z,30.60
2018-04-29T17:44:33.706Z,29.70
2018-04-29T17:47:03.647Z,29.10
2018-04-29T17:49:31.215Z,28.40
2018-04-29T17:51:58.747Z,27.80
2018-04-29T17:54:26.451Z,27.20
2018-04-29T17:56:54.858Z,26.30
2018-04-29T17:59:22.394Z,26.30
2018-04-29T18:01:50.045Z,25.90
2018-04-29T18:04:17.591Z,25.60
2018-04-29T18:06:45.215Z,25.30
2018-04-29T18:09:14.921Z,24.80
2018-04-29T18:11:42.553Z,24.80
2018-04-29T18:14:10.108Z,24.70
2018-04-29T18:16:39.439Z,24.00
2018-04-29T18:19:07.006Z,23.90
2018-04-29T18:21:34.756Z,23.60
2018-04-29T18:24:02.294Z,23.20
2018-04-29T18:26:29.856Z,22.80
2018-04-29T18:28:57.380Z,22.60
2018-04-29T18:31:24.981Z,22.30
2018-04-29T18:33:52.514Z,22.10
2018-04-29T18:36:20.866Z,21.60
2018-04-29T18:38:48.468Z,21.60
2018-04-29T18:41:16.148Z,21.50
2018-04-29T18:43:45.198Z,21.10
2018-04-29T18:46:12.747Z,21.20
2018-04-29T18:48:40.289Z,21.10
2018-04-29T18:51:07.973Z,20.90
2018-04-29T18:53:35.475Z,20.80
2018-04-29T18:56:03.021Z,20.70
2018-04-29T18:58:30.671Z,20.60
2018-04-29T19:00:58.242Z,20.50
2018-04-29T19:03:26.151Z,20.40
2018-04-29T19:05:59.989Z,20.40
2018-04-29T19:08:27.568Z,20.40
2018-04-29T19:10:55.123Z,20.30
2018-04-29T19:13:22.692Z,20.30
2018-04-29T19:15:50.255Z,20.20
2018-04-29T19:18:17.774Z,20.10
2018-04-29T19:20:45.320Z,20.00
2018-04-29T19:23:12.867Z,19.90
2018-04-29T19:25:40.423Z,19.90
2018-04-29T19:28:07.964Z,19.80
2018-04-29T19:30:35.517Z,19.70
2018-04-29T19:33:03.790Z,19.70
2018-04-29T19:35:31.361Z,19.50
2018-04-29T19:37:59.646Z,19.40
2018-04-29T19:40:27.183Z,19.40
2018-04-29T19:42:54.763Z,19.40
2018-04-29T19:45:22.319Z,19.30
2018-04-29T19:47:49.885Z,19.30
2018-04-29T19:50:19.035Z,19.20
2018-04-29T19:52:46.612Z,19.20
2018-04-29T19:55:14.557Z,19.20
2018-04-29T19:57:42.356Z,19.10
2018-04-29T20:00:09.871Z,19.10
2018-04-29T20:02:37.451Z,19.10
2018-04-29T20:05:05.003Z,19.00
2018-04-29T20:07:32.555Z,19.00
2018-04-29T20:10:00.099Z,18.90
2018-04-29T20:12:27.664Z,18.90
2018-04-29T20:14:55.215Z,18.80
2018-04-29T20:17:22.772Z,18.80
2018-04-29T20:19:50.291Z,18.80
2018-04-29T20:22:17.999Z,18.70
2018-04-29T20:24:45.653Z,18.70
2018-04-29T20:27:13.190Z,18.70
2018-04-29T20:29:41.644Z,18.70
2018-04-29T20:32:09.203Z,18.60
2018-04-29T20:34:36.785Z,18.60
2018-04-29T20:37:04.355Z,18.50
2018-04-29T20:39:31.881Z,18.50
2018-04-29T20:41:59.428Z,18.50
2018-04-29T20:44:26.959Z,18.40
2018-04-29T20:46:54.504Z,18.40
2018-04-29T20:49:22.075Z,18.30
2018-04-29T20:51:49.808Z,18.30
2018-04-29T20:54:18.855Z,18.20
2018-04-29T20:56:46.830Z,18.20
2018-04-29T20:59:14.352Z,18.20
2018-04-29T21:01:42.169Z,18.20
2018-04-29T21:04:10.515Z,18.10
2018-04-29T21:06:38.855Z,18.00
2018-04-29T21:09:06.403Z,18.00
2018-04-29T21:11:33.914Z,18.00
2018-04-29T21:14:01.478Z,18.00
2018-04-29T21:16:28.999Z,17.90
2018-04-29T21:18:56.546Z,17.90
2018-04-29T21:21:24.103Z,17.80
2018-04-29T21:23:51.647Z,17.70
2018-04-29T21:26:19.180Z,17.60
2018-04-29T21:28:46.745Z,17.60
2018-04-29T21:31:14.264Z,17.50
2018-04-29T21:33:41.815Z,17.40
2018-04-29T21:36:09.392Z,17.40
2018-04-29T21:38:36.943Z,17.30
2018-04-29T21:41:04.569Z,17.30
2018-04-29T21:43:32.317Z,17.30
2018-04-29T21:45:59.872Z,17.20
2018-04-29T21:48:27.424Z,17.20
2018-04-29T21:50:54.954Z,17.10
2018-04-29T21:53:22.569Z,17.10
2018-04-29T21:55:50.100Z,17.10
2018-04-29T21:58:18.446Z,17.00
2018-04-29T22:00:46.720Z,17.00
2018-04-29T22:03:15.032Z,17.00
2018-04-29T22:05:42.551Z,16.90
2018-04-29T22:08:10.097Z,16.90
2018-04-29T22:10:37.610Z,16.90
2018-04-29T22:13:05.928Z,16.80
2018-04-29T22:15:33.475Z,16.80
2018-04-29T22:18:01.031Z,16.70
2018-04-29T22:20:28.591Z,16.70
2018-04-29T22:22:56.119Z,16.70
2018-04-29T22:25:23.666Z,16.70
2018-04-29T22:27:51.203Z,16.60
2018-04-29T22:30:18.759Z,16.60
2018-04-29T22:32:46.327Z,16.50
2018-04-29T22:35:14.652Z,16.40
2018-04-29T22:37:42.172Z,16.40
2018-04-29T22:40:09.720Z,16.40
2018-04-29T22:42:37.237Z,16.40
2018-04-29T22:45:04.783Z,16.40
2018-04-29T22:47:32.308Z,16.40
2018-04-29T22:50:00.626Z,16.30
2018-04-29T22:52:28.162Z,16.30
2018-04-29T22:54:55.715Z,16.30
2018-04-29T22:57:23.236Z,16.20
2018-04-29T22:59:50.787Z,16.10
2018-04-29T23:02:18.315Z,16.10
2018-04-29T23:04:45.864Z,16.10
2018-04-29T23:07:13.398Z,16.10
2018-04-29T23:09:40.956Z,16.10
2018-04-29T23:12:08.532Z,16.10
2018-04-29T23:14:36.090Z,16.10
2018-04-29T23:17:03.611Z,16.00
2018-04-29T23:19:31.180Z,16.00
2018-04-29T23:21:58.714Z,16.00
2018-04-29T23:24:26.322Z,15.90
2018-04-29T23:26:53.847Z,16.00
2018-04-29T23:29:22.171Z,15.90
2018-04-29T23:31:49.812Z,15.90
2018-04-29T23:34:17.410Z,15.90
2018-04-29T23:36:45.867Z,15.90
2018-04-29T23:39:14.193Z,15.90
2018-04-29T23:41:41.712Z,15.90
2018-04-29T23:44:09.259Z,15.80
2018-04-29T23:46:36.807Z,15.80
2018-04-29T23:49:04.403Z,15.80
2018-04-29T23:51:31.904Z,15.80
2018-04-29T23:53:59.423Z,15.80
2018-04-29T23:56:26.969Z,15.80
2018-04-29T23:58:54.486Z,15.80
